Aviation Digital Data Service (ADDS)

Output produced by METARs form (1330 UTC 16 August 2017)
found at http://aviationweather.gov/adds/metars/
 
KGNV 161120Z 1612/1712 31005KT P6SM SCT025 
     FM162100 25008KT P6SM BKN045 
     FM170000 28005KT P6SM SCT050 BKN250 
     FM170400 00000KT P6SM SCT250